sensor_id;sensor_type;location;lat;lon;timestamp;temperature;humidity
23556;DHT22;11956;53.184;8.578;2023-04-15T00:00:10;6.10;99.90
23556;DHT22;11956;53.184;8.578;2023-04-15T00:03:14;6.10;99.90
23556;DHT22;11956;53.184;8.578;2023-04-15T00:06:15;6.10;99.90
23556;DHT22;11956;53.184;8.578;2023-04-15T00:09:16;6.10;99.90
23556;DHT22;11956;53.184;8.578;2023-04-15T00:12:18;6.10;99.90
23556;DHT22;11956;53.184;8.578;2023-04-15T00:15:19;6.20;99.90
23556;DHT22;11956;53.184;8.578;2023-04-15T00:18:20;6.30;99.90
23556;DHT22;11956;53.184;8.578;2023-04-15T00:21:21;6.30;99.90
23556;DHT22;11956;53.184;8.578;2023-04-15T00:24:22;6.40;99.90
23556;DHT22;11956;53.184;8.578;2023-04-15T00:27:23;6.40;99.90
23556;DHT22;11956;53.184;8.578;2023-04-15T00:30:24;6.40;99.90
23556;DHT22;11956;53.184;8.578;2023-04-15T00:33:26;6.40;99.90
23556;DHT22;11956;53.184;8.578;2023-04-15T00:36:27;6.40;99.90
23556;DHT22;11956;53.184;8.578;2023-04-15T00:39:28;6.40;99.90
23556;DHT22;11956;53.184;8.578;2023-04-15T00:42:29;6.40;99.90
23556;DHT22;11956;53.184;8.578;2023-04-15T00:45:30;6.40;99.90
23556;DHT22;11956;53.184;8.578;2023-04-15T00:48:31;6.40;99.90
23556;DHT22;11956;53.184;8.578;2023-04-15T00:51:33;6.50;99.90
23556;DHT22;11956;53.184;8.578;2023-04-15T00:54:36;6.50;99.90
23556;DHT22;11956;53.184;8.578;2023-04-15T00:57:38;6.50;99.90
23556;DHT22;11956;53.184;8.578;2023-04-15T01:00:40;6.50;99.90
23556;DHT22;11956;53.184;8.578;2023-04-15T01:03:41;6.50;99.90
23556;DHT22;11956;53.184;8.578;2023-04-15T01:06:42;6.60;99.90
23556;DHT22;11956;53.184;8.578;2023-04-15T01:09:44;6.50;99.90
23556;DHT22;11956;53.184;8.578;2023-04-15T01:12:45;6.50;99.90
23556;DHT22;11956;53.184;8.578;2023-04-15T01:15:46;6.50;99.90
23556;DHT22;11956;53.184;8.578;2023-04-15T01:18:48;6.50;99.90
23556;DHT22;11956;53.184;8.578;2023-04-15T01:21:49;6.50;99.90
23556;DHT22;11956;53.184;8.578;2023-04-15T01:24:59;6.50;99.90
23556;DHT22;11956;53.184;8.578;2023-04-15T01:28:02;6.60;99.90
23556;DHT22;11956;53.184;8.578;2023-04-15T01:31:07;6.60;99.90
23556;DHT22;11956;53.184;8.578;2023-04-15T01:34:13;6.60;99.90
23556;DHT22;11956;53.184;8.578;2023-04-15T01:37:14;6.50;99.90
23556;DHT22;11956;53.184;8.578;2023-04-15T01:40:15;6.50;99.90
23556;DHT22;11956;53.184;8.578;2023-04-15T01:43:16;6.60;99.90
23556;DHT22;11956;53.184;8.578;2023-04-15T01:46:17;6.60;99.90
23556;DHT22;11956;53.184;8.578;2023-04-15T01:49:18;6.60;99.90
23556;DHT22;11956;53.184;8.578;2023-04-15T01:52:19;6.50;99.90
23556;DHT22;11956;53.184;8.578;2023-04-15T01:55:20;6.50;99.90
23556;DHT22;11956;53.184;8.578;2023-04-15T01:58:21;6.50;99.90
23556;DHT22;11956;53.184;8.578;2023-04-15T02:01:22;6.50;99.90
23556;DHT22;11956;53.184;8.578;2023-04-15T02:04:22;6.50;99.90
23556;DHT22;11956;53.184;8.578;2023-04-15T02:07:23;6.50;99.90
23556;DHT22;11956;53.184;8.578;2023-04-15T02:10:26;6.40;99.90
23556;DHT22;11956;53.184;8.578;2023-04-15T02:13:27;6.50;99.90
23556;DHT22;11956;53.184;8.578;2023-04-15T02:16:31;6.50;99.90
23556;DHT22;11956;53.184;8.578;2023-04-15T02:19:34;6.50;99.90
23556;DHT22;11956;53.184;8.578;2023-04-15T02:22:37;6.60;99.90
23556;DHT22;11956;53.184;8.578;2023-04-15T02:25:38;6.60;99.90
23556;DHT22;11956;53.184;8.578;2023-04-15T02:28:39;6.50;99.90
23556;DHT22;11956;53.184;8.578;2023-04-15T02:31:40;6.50;99.90
23556;DHT22;11956;53.184;8.578;2023-04-15T02:34:41;6.50;99.90
23556;DHT22;11956;53.184;8.578;2023-04-15T02:37:43;6.50;99.90
23556;DHT22;11956;53.184;8.578;2023-04-15T02:40:46;6.50;99.90
23556;DHT22;11956;53.184;8.578;2023-04-15T02:43:49;6.50;99.90
23556;DHT22;11956;53.184;8.578;2023-04-15T02:46:50;6.60;99.90
23556;DHT22;11956;53.184;8.578;2023-04-15T02:49:52;6.60;99.90
23556;DHT22;11956;53.184;8.578;2023-04-15T02:52:53;6.60;99.90
23556;DHT22;11956;53.184;8.578;2023-04-15T02:55:53;6.50;99.90
23556;DHT22;11956;53.184;8.578;2023-04-15T02:58:54;6.60;99.90
23556;DHT22;11956;53.184;8.578;2023-04-15T03:01:56;6.60;99.90
23556;DHT22;11956;53.184;8.578;2023-04-15T03:05:00;6.60;99.90
23556;DHT22;11956;53.184;8.578;2023-04-15T03:08:03;6.60;99.90
23556;DHT22;11956;53.184;8.578;2023-04-15T03:11:04;6.70;99.90
23556;DHT22;11956;53.184;8.578;2023-04-15T03:14:07;6.80;99.90
23556;DHT22;11956;53.184;8.578;2023-04-15T03:17:11;6.80;99.90
23556;DHT22;11956;53.184;8.578;2023-04-15T03:20:13;6.80;99.90
23556;DHT22;11956;53.184;8.578;2023-04-15T03:23:14;6.80;99.90
23556;DHT22;11956;53.184;8.578;2023-04-15T03:26:28;6.90;99.90
23556;DHT22;11956;53.184;8.578;2023-04-15T03:29:33;6.90;99.90
23556;DHT22;11956;53.184;8.578;2023-04-15T03:32:34;6.90;99.90
23556;DHT22;11956;53.184;8.578;2023-04-15T03:35:35;6.90;99.90
23556;DHT22;11956;53.184;8.578;2023-04-15T03:38:36;7.00;99.90
23556;DHT22;11956;53.184;8.578;2023-04-15T03:41:37;7.10;99.90
23556;DHT22;11956;53.184;8.578;2023-04-15T03:44:38;7.20;99.90
23556;DHT22;11956;53.184;8.578;2023-04-15T03:47:38;7.20;99.90
23556;DHT22;11956;53.184;8.578;2023-04-15T03:50:39;7.30;99.90
23556;DHT22;11956;53.184;8.578;2023-04-15T03:53:41;7.30;99.90
23556;DHT22;11956;53.184;8.578;2023-04-15T03:56:42;7.30;99.90
23556;DHT22;11956;53.184;8.578;2023-04-15T03:59:42;7.40;99.90
23556;DHT22;11956;53.184;8.578;2023-04-15T04:02:43;7.40;99.90
23556;DHT22;11956;53.184;8.578;2023-04-15T04:05:45;7.40;99.90
23556;DHT22;11956;53.184;8.578;2023-04-15T04:08:46;7.40;99.90
23556;DHT22;11956;53.184;8.578;2023-04-15T04:11:47;7.40;99.90
23556;DHT22;11956;53.184;8.578;2023-04-15T04:14:48;7.40;99.90
23556;DHT22;11956;53.184;8.578;2023-04-15T04:17:49;7.40;99.90
23556;DHT22;11956;53.184;8.578;2023-04-15T04:20:50;7.50;99.90
23556;DHT22;11956;53.184;8.578;2023-04-15T04:23:51;7.50;99.90
23556;DHT22;11956;53.184;8.578;2023-04-15T04:26:52;7.60;99.90
23556;DHT22;11956;53.184;8.578;2023-04-15T04:29:52;7.60;99.90
23556;DHT22;11956;53.184;8.578;2023-04-15T04:32:53;7.60;99.90
23556;DHT22;11956;53.184;8.578;2023-04-15T04:35:54;7.60;99.90
23556;DHT22;11956;53.184;8.578;2023-04-15T04:38:55;7.70;99.90
23556;DHT22;11956;53.184;8.578;2023-04-15T04:41:56;7.60;99.90
23556;DHT22;11956;53.184;8.578;2023-04-15T04:44:57;7.70;99.90
23556;DHT22;11956;53.184;8.578;2023-04-15T04:47:58;7.70;99.90
23556;DHT22;11956;53.184;8.578;2023-04-15T04:51:00;7.70;99.90
23556;DHT22;11956;53.184;8.578;2023-04-15T04:54:01;7.70;99.90
23556;DHT22;11956;53.184;8.578;2023-04-15T04:57:02;7.70;99.90
23556;DHT22;11956;53.184;8.578;2023-04-15T05:00:03;7.80;99.90
23556;DHT22;11956;53.184;8.578;2023-04-15T05:03:05;7.80;99.90
23556;DHT22;11956;53.184;8.578;2023-04-15T05:06:06;7.80;99.90
23556;DHT22;11956;53.184;8.578;2023-04-15T05:09:08;7.80;99.90
23556;DHT22;11956;53.184;8.578;2023-04-15T05:12:09;7.80;99.90
23556;DHT22;11956;53.184;8.578;2023-04-15T05:15:14;7.80;99.90
23556;DHT22;11956;53.184;8.578;2023-04-15T05:18:15;7.80;99.90
23556;DHT22;11956;53.184;8.578;2023-04-15T05:21:16;7.90;99.90
23556;DHT22;11956;53.184;8.578;2023-04-15T05:24:16;7.90;99.90
23556;DHT22;11956;53.184;8.578;2023-04-15T05:27:17;7.90;99.90
23556;DHT22;11956;53.184;8.578;2023-04-15T05:30:18;7.90;99.90
23556;DHT22;11956;53.184;8.578;2023-04-15T05:33:20;7.90;99.90
23556;DHT22;11956;53.184;8.578;2023-04-15T05:36:21;8.00;99.90
23556;DHT22;11956;53.184;8.578;2023-04-15T05:39:21;8.00;99.90
23556;DHT22;11956;53.184;8.578;2023-04-15T05:42:22;8.00;99.90
23556;DHT22;11956;53.184;8.578;2023-04-15T05:45:23;8.00;99.90
23556;DHT22;11956;53.184;8.578;2023-04-15T05:48:24;7.90;99.90
23556;DHT22;11956;53.184;8.578;2023-04-15T05:51:25;8.00;99.90
23556;DHT22;11956;53.184;8.578;2023-04-15T05:54:26;7.90;99.90
23556;DHT22;11956;53.184;8.578;2023-04-15T05:57:27;7.90;99.90
23556;DHT22;11956;53.184;8.578;2023-04-15T06:00:28;7.90;99.90
23556;DHT22;11956;53.184;8.578;2023-04-15T06:03:29;7.90;99.90
23556;DHT22;11956;53.184;8.578;2023-04-15T06:06:30;7.90;99.90
23556;DHT22;11956;53.184;8.578;2023-04-15T06:09:32;7.90;99.90
23556;DHT22;11956;53.184;8.578;2023-04-15T06:12:33;7.90;99.90
23556;DHT22;11956;53.184;8.578;2023-04-15T06:15:34;7.90;99.90
23556;DHT22;11956;53.184;8.578;2023-04-15T06:18:35;7.90;99.90
23556;DHT22;11956;53.184;8.578;2023-04-15T06:21:36;7.90;99.90
23556;DHT22;11956;53.184;8.578;2023-04-15T06:24:37;8.00;99.90
23556;DHT22;11956;53.184;8.578;2023-04-15T06:27:38;8.00;99.90
23556;DHT22;11956;53.184;8.578;2023-04-15T06:30:39;8.10;99.90
23556;DHT22;11956;53.184;8.578;2023-04-15T06:33:40;8.10;99.90
23556;DHT22;11956;53.184;8.578;2023-04-15T06:36:41;8.10;99.90
23556;DHT22;11956;53.184;8.578;2023-04-15T06:39:42;8.10;99.90
23556;DHT22;11956;53.184;8.578;2023-04-15T06:42:44;8.10;99.90
23556;DHT22;11956;53.184;8.578;2023-04-15T06:45:45;8.10;99.90
23556;DHT22;11956;53.184;8.578;2023-04-15T06:48:46;8.20;99.90
23556;DHT22;11956;53.184;8.578;2023-04-15T06:51:47;8.20;99.90
23556;DHT22;11956;53.184;8.578;2023-04-15T06:54:48;8.20;99.90
23556;DHT22;11956;53.184;8.578;2023-04-15T06:57:49;8.30;99.90
23556;DHT22;11956;53.184;8.578;2023-04-15T07:00:51;8.30;99.90
23556;DHT22;11956;53.184;8.578;2023-04-15T07:03:52;8.20;99.90
23556;DHT22;11956;53.184;8.578;2023-04-15T07:06:53;8.30;99.90
23556;DHT22;11956;53.184;8.578;2023-04-15T07:09:57;8.30;99.90
23556;DHT22;11956;53.184;8.578;2023-04-15T07:12:58;8.40;99.90
23556;DHT22;11956;53.184;8.578;2023-04-15T07:15:59;8.40;99.90
23556;DHT22;11956;53.184;8.578;2023-04-15T07:19:00;8.40;99.90
23556;DHT22;11956;53.184;8.578;2023-04-15T07:22:01;8.40;99.90
23556;DHT22;11956;53.184;8.578;2023-04-15T07:25:01;8.50;99.90
23556;DHT22;11956;53.184;8.578;2023-04-15T07:28:03;8.40;99.90
23556;DHT22;11956;53.184;8.578;2023-04-15T07:31:04;8.50;99.90
23556;DHT22;11956;53.184;8.578;2023-04-15T07:34:06;8.50;99.90
23556;DHT22;11956;53.184;8.578;2023-04-15T07:37:07;8.60;99.90
23556;DHT22;11956;53.184;8.578;2023-04-15T07:40:08;8.60;99.90
23556;DHT22;11956;53.184;8.578;2023-04-15T07:43:10;8.50;99.90
23556;DHT22;11956;53.184;8.578;2023-04-15T07:46:11;8.50;99.90
23556;DHT22;11956;53.184;8.578;2023-04-15T07:49:12;8.50;99.90
23556;DHT22;11956;53.184;8.578;2023-04-15T07:52:13;8.50;99.90
23556;DHT22;11956;53.184;8.578;2023-04-15T07:55:14;8.50;99.90
23556;DHT22;11956;53.184;8.578;2023-04-15T07:58:17;8.50;99.90
23556;DHT22;11956;53.184;8.578;2023-04-15T08:01:17;8.60;99.90
23556;DHT22;11956;53.184;8.578;2023-04-15T08:04:18;8.50;99.90
23556;DHT22;11956;53.184;8.578;2023-04-15T08:07:19;8.50;99.90
23556;DHT22;11956;53.184;8.578;2023-04-15T08:10:21;8.60;99.90
23556;DHT22;11956;53.184;8.578;2023-04-15T08:13:22;8.60;99.90
23556;DHT22;11956;53.184;8.578;2023-04-15T08:16:24;8.70;99.90
23556;DHT22;11956;53.184;8.578;2023-04-15T08:19:27;8.60;99.90
23556;DHT22;11956;53.184;8.578;2023-04-15T08:22:28;8.60;99.90
23556;DHT22;11956;53.184;8.578;2023-04-15T08:25:29;8.60;99.90
23556;DHT22;11956;53.184;8.578;2023-04-15T08:28:30;8.70;99.90
23556;DHT22;11956;53.184;8.578;2023-04-15T08:31:31;8.80;99.90
23556;DHT22;11956;53.184;8.578;2023-04-15T08:34:32;8.80;99.90
23556;DHT22;11956;53.184;8.578;2023-04-15T08:37:33;8.80;99.90
23556;DHT22;11956;53.184;8.578;2023-04-15T08:40:54;8.90;99.90
23556;DHT22;11956;53.184;8.578;2023-04-15T08:44:05;8.90;99.90
23556;DHT22;11956;53.184;8.578;2023-04-15T08:47:07;8.90;99.90
23556;DHT22;11956;53.184;8.578;2023-04-15T08:50:09;8.90;99.90
23556;DHT22;11956;53.184;8.578;2023-04-15T08:53:11;9.00;99.90
23556;DHT22;11956;53.184;8.578;2023-04-15T08:56:13;9.00;99.90
23556;DHT22;11956;53.184;8.578;2023-04-15T08:59:16;9.00;99.90
23556;DHT22;11956;53.184;8.578;2023-04-15T09:02:18;8.90;99.90
23556;DHT22;11956;53.184;8.578;2023-04-15T09:05:18;8.90;99.90
23556;DHT22;11956;53.184;8.578;2023-04-15T09:08:21;8.80;99.90
23556;DHT22;11956;53.184;8.578;2023-04-15T09:11:22;8.80;99.90
23556;DHT22;11956;53.184;8.578;2023-04-15T09:14:23;8.70;99.90
23556;DHT22;11956;53.184;8.578;2023-04-15T09:17:24;8.80;99.90
23556;DHT22;11956;53.184;8.578;2023-04-15T09:20:26;8.70;99.90
23556;DHT22;11956;53.184;8.578;2023-04-15T09:23:27;8.80;99.90
23556;DHT22;11956;53.184;8.578;2023-04-15T09:26:36;8.80;99.90
23556;DHT22;11956;53.184;8.578;2023-04-15T09:29:40;8.80;99.90
23556;DHT22;11956;53.184;8.578;2023-04-15T09:32:56;8.80;99.90
23556;DHT22;11956;53.184;8.578;2023-04-15T09:36:03;9.00;99.90
23556;DHT22;11956;53.184;8.578;2023-04-15T09:39:05;9.20;99.90
23556;DHT22;11956;53.184;8.578;2023-04-15T09:42:06;9.10;99.90
23556;DHT22;11956;53.184;8.578;2023-04-15T09:45:11;9.20;99.90
23556;DHT22;11956;53.184;8.578;2023-04-15T09:48:23;9.20;99.90
23556;DHT22;11956;53.184;8.578;2023-04-15T09:51:33;9.20;99.90
23556;DHT22;11956;53.184;8.578;2023-04-15T09:54:36;9.30;99.90
23556;DHT22;11956;53.184;8.578;2023-04-15T09:57:38;9.30;99.90
23556;DHT22;11956;53.184;8.578;2023-04-15T10:00:46;9.20;99.90
23556;DHT22;11956;53.184;8.578;2023-04-15T10:03:48;9.30;99.90
23556;DHT22;11956;53.184;8.578;2023-04-15T10:06:50;9.30;99.90
23556;DHT22;11956;53.184;8.578;2023-04-15T10:09:51;9.30;99.90
23556;DHT22;11956;53.184;8.578;2023-04-15T10:12:53;9.20;99.90
23556;DHT22;11956;53.184;8.578;2023-04-15T10:16:09;9.30;99.90
23556;DHT22;11956;53.184;8.578;2023-04-15T10:19:11;9.40;99.90
23556;DHT22;11956;53.184;8.578;2023-04-15T10:22:13;9.50;99.90
23556;DHT22;11956;53.184;8.578;2023-04-15T10:25:15;9.50;99.90
23556;DHT22;11956;53.184;8.578;2023-04-15T10:28:16;9.50;99.90
23556;DHT22;11956;53.184;8.578;2023-04-15T10:31:17;9.70;99.90
23556;DHT22;11956;53.184;8.578;2023-04-15T10:34:19;9.60;99.90
23556;DHT22;11956;53.184;8.578;2023-04-15T10:37:33;9.60;99.90
23556;DHT22;11956;53.184;8.578;2023-04-15T10:40:35;9.50;99.90
23556;DHT22;11956;53.184;8.578;2023-04-15T10:43:39;9.50;99.90
23556;DHT22;11956;53.184;8.578;2023-04-15T10:46:45;9.40;99.90
23556;DHT22;11956;53.184;8.578;2023-04-15T10:49:51;9.40;99.90
23556;DHT22;11956;53.184;8.578;2023-04-15T10:52:58;9.30;99.90
23556;DHT22;11956;53.184;8.578;2023-04-15T10:55:59;9.40;99.90
23556;DHT22;11956;53.184;8.578;2023-04-15T10:59:00;9.40;99.90
23556;DHT22;11956;53.184;8.578;2023-04-15T11:02:05;9.40;99.90
23556;DHT22;11956;53.184;8.578;2023-04-15T11:05:07;9.30;99.90
23556;DHT22;11956;53.184;8.578;2023-04-15T11:08:09;9.40;99.90
23556;DHT22;11956;53.184;8.578;2023-04-15T11:11:11;9.40;99.90
23556;DHT22;11956;53.184;8.578;2023-04-15T11:14:15;9.50;99.90
23556;DHT22;11956;53.184;8.578;2023-04-15T11:17:26;9.40;99.90
23556;DHT22;11956;53.184;8.578;2023-04-15T11:20:28;9.30;99.90
23556;DHT22;11956;53.184;8.578;2023-04-15T11:26:48;9.30;99.90
23556;DHT22;11956;53.184;8.578;2023-04-15T11:29:49;9.40;99.90
23556;DHT22;11956;53.184;8.578;2023-04-15T11:32:52;9.40;99.90
23556;DHT22;11956;53.184;8.578;2023-04-15T11:35:54;9.40;99.90
23556;DHT22;11956;53.184;8.578;2023-04-15T11:38:57;9.40;99.90
23556;DHT22;11956;53.184;8.578;2023-04-15T11:41:58;9.50;99.90
23556;DHT22;11956;53.184;8.578;2023-04-15T11:45:13;9.70;99.90
23556;DHT22;11956;53.184;8.578;2023-04-15T11:48:15;9.70;99.90
23556;DHT22;11956;53.184;8.578;2023-04-15T11:51:16;9.70;99.90
23556;DHT22;11956;53.184;8.578;2023-04-15T11:54:20;9.70;99.90
23556;DHT22;11956;53.184;8.578;2023-04-15T11:57:21;9.80;99.90
23556;DHT22;11956;53.184;8.578;2023-04-15T12:00:22;9.90;99.90
23556;DHT22;11956;53.184;8.578;2023-04-15T12:03:27;9.90;99.90
23556;DHT22;11956;53.184;8.578;2023-04-15T12:06:33;9.90;99.90
23556;DHT22;11956;53.184;8.578;2023-04-15T12:09:37;10.00;99.90
23556;DHT22;11956;53.184;8.578;2023-04-15T12:12:40;10.00;99.90
23556;DHT22;11956;53.184;8.578;2023-04-15T12:15:40;9.90;99.90
23556;DHT22;11956;53.184;8.578;2023-04-15T12:18:49;10.00;99.90
23556;DHT22;11956;53.184;8.578;2023-04-15T12:21:54;10.20;99.90
23556;DHT22;11956;53.184;8.578;2023-04-15T12:24:58;10.20;99.90
23556;DHT22;11956;53.184;8.578;2023-04-15T12:28:09;10.20;99.90
23556;DHT22;11956;53.184;8.578;2023-04-15T12:31:11;10.20;99.90
23556;DHT22;11956;53.184;8.578;2023-04-15T12:34:13;10.20;99.90
23556;DHT22;11956;53.184;8.578;2023-04-15T12:37:14;10.20;99.90
23556;DHT22;11956;53.184;8.578;2023-04-15T12:40:15;10.20;99.90
23556;DHT22;11956;53.184;8.578;2023-04-15T12:43:16;10.20;99.90
23556;DHT22;11956;53.184;8.578;2023-04-15T12:46:17;10.20;99.90
23556;DHT22;11956;53.184;8.578;2023-04-15T12:49:20;10.20;99.90
23556;DHT22;11956;53.184;8.578;2023-04-15T12:52:22;10.20;99.90
23556;DHT22;11956;53.184;8.578;2023-04-15T12:55:23;10.30;99.90
23556;DHT22;11956;53.184;8.578;2023-04-15T12:58:24;10.30;99.90
23556;DHT22;11956;53.184;8.578;2023-04-15T13:01:25;10.40;99.90
23556;DHT22;11956;53.184;8.578;2023-04-15T13:04:26;10.40;99.90
23556;DHT22;11956;53.184;8.578;2023-04-15T13:07:30;10.40;99.90
23556;DHT22;11956;53.184;8.578;2023-04-15T13:10:31;10.50;99.90
23556;DHT22;11956;53.184;8.578;2023-04-15T13:13:32;10.60;99.90
23556;DHT22;11956;53.184;8.578;2023-04-15T13:16:33;10.80;99.90
23556;DHT22;11956;53.184;8.578;2023-04-15T13:19:35;10.90;99.90
23556;DHT22;11956;53.184;8.578;2023-04-15T13:22:36;11.00;99.90
23556;DHT22;11956;53.184;8.578;2023-04-15T13:25:38;11.00;99.90
23556;DHT22;11956;53.184;8.578;2023-04-15T13:28:38;10.90;99.90
23556;DHT22;11956;53.184;8.578;2023-04-15T13:31:39;11.10;99.90
23556;DHT22;11956;53.184;8.578;2023-04-15T13:34:40;11.30;99.90
23556;DHT22;11956;53.184;8.578;2023-04-15T13:37:41;11.70;99.90
23556;DHT22;11956;53.184;8.578;2023-04-15T13:40:42;12.00;99.90
23556;DHT22;11956;53.184;8.578;2023-04-15T13:43:43;12.40;99.90
23556;DHT22;11956;53.184;8.578;2023-04-15T13:46:44;12.80;99.90
23556;DHT22;11956;53.184;8.578;2023-04-15T13:49:45;13.20;99.90
23556;DHT22;11956;53.184;8.578;2023-04-15T13:52:46;13.40;99.90
23556;DHT22;11956;53.184;8.578;2023-04-15T13:55:47;13.30;99.90
23556;DHT22;11956;53.184;8.578;2023-04-15T13:58:48;13.50;99.90
23556;DHT22;11956;53.184;8.578;2023-04-15T14:01:49;13.30;99.90
23556;DHT22;11956;53.184;8.578;2023-04-15T14:04:50;13.10;99.90
23556;DHT22;11956;53.184;8.578;2023-04-15T14:07:51;12.80;99.90
23556;DHT22;11956;53.184;8.578;2023-04-15T14:10:52;12.70;99.90
23556;DHT22;11956;53.184;8.578;2023-04-15T14:13:53;12.70;99.90
23556;DHT22;11956;53.184;8.578;2023-04-15T14:16:54;12.80;99.90
23556;DHT22;11956;53.184;8.578;2023-04-15T14:19:55;12.80;99.90
23556;DHT22;11956;53.184;8.578;2023-04-15T14:22:56;12.80;99.90
23556;DHT22;11956;53.184;8.578;2023-04-15T14:25:57;13.10;99.90
23556;DHT22;11956;53.184;8.578;2023-04-15T14:28:58;13.10;99.90
23556;DHT22;11956;53.184;8.578;2023-04-15T14:32:00;13.30;99.90
23556;DHT22;11956;53.184;8.578;2023-04-15T14:35:01;13.60;99.90
23556;DHT22;11956;53.184;8.578;2023-04-15T14:38:02;14.00;99.90
23556;DHT22;11956;53.184;8.578;2023-04-15T14:41:04;14.10;99.90
23556;DHT22;11956;53.184;8.578;2023-04-15T14:44:05;13.90;99.90
23556;DHT22;11956;53.184;8.578;2023-04-15T14:47:08;13.90;99.90
23556;DHT22;11956;53.184;8.578;2023-04-15T14:50:09;13.60;99.90
23556;DHT22;11956;53.184;8.578;2023-04-15T14:53:10;13.50;99.90
23556;DHT22;11956;53.184;8.578;2023-04-15T14:56:11;13.50;99.90
23556;DHT22;11956;53.184;8.578;2023-04-15T14:59:12;13.60;99.90
23556;DHT22;11956;53.184;8.578;2023-04-15T15:02:13;13.70;99.90
23556;DHT22;11956;53.184;8.578;2023-04-15T15:05:14;13.70;99.90
23556;DHT22;11956;53.184;8.578;2023-04-15T15:08:15;13.90;99.90
23556;DHT22;11956;53.184;8.578;2023-04-15T15:11:16;14.00;99.90
23556;DHT22;11956;53.184;8.578;2023-04-15T15:14:17;14.00;99.90
23556;DHT22;11956;53.184;8.578;2023-04-15T15:17:18;14.00;99.90
23556;DHT22;11956;53.184;8.578;2023-04-15T15:20:19;14.00;99.90
23556;DHT22;11956;53.184;8.578;2023-04-15T15:23:20;14.00;99.90
23556;DHT22;11956;53.184;8.578;2023-04-15T15:26:21;14.00;99.90
23556;DHT22;11956;53.184;8.578;2023-04-15T15:29:22;14.10;99.90
23556;DHT22;11956;53.184;8.578;2023-04-15T15:32:23;14.00;99.90
23556;DHT22;11956;53.184;8.578;2023-04-15T15:35:25;13.80;99.90
23556;DHT22;11956;53.184;8.578;2023-04-15T15:38:25;13.80;99.90
23556;DHT22;11956;53.184;8.578;2023-04-15T15:41:27;13.70;99.90
23556;DHT22;11956;53.184;8.578;2023-04-15T15:44:28;13.70;99.90
23556;DHT22;11956;53.184;8.578;2023-04-15T15:47:29;13.90;99.90
23556;DHT22;11956;53.184;8.578;2023-04-15T15:50:30;14.10;99.90
23556;DHT22;11956;53.184;8.578;2023-04-15T15:53:31;14.20;99.90
23556;DHT22;11956;53.184;8.578;2023-04-15T15:56:33;14.20;99.90
23556;DHT22;11956;53.184;8.578;2023-04-15T15:59:37;14.00;99.90
23556;DHT22;11956;53.184;8.578;2023-04-15T16:02:43;13.90;99.90
23556;DHT22;11956;53.184;8.578;2023-04-15T16:05:44;13.80;99.90
23556;DHT22;11956;53.184;8.578;2023-04-15T16:08:46;13.60;99.90
23556;DHT22;11956;53.184;8.578;2023-04-15T16:11:47;13.60;99.90
23556;DHT22;11956;53.184;8.578;2023-04-15T16:14:48;13.50;99.90
23556;DHT22;11956;53.184;8.578;2023-04-15T16:17:49;13.50;99.90
23556;DHT22;11956;53.184;8.578;2023-04-15T16:20:49;13.40;99.90
23556;DHT22;11956;53.184;8.578;2023-04-15T16:23:50;13.40;99.90
23556;DHT22;11956;53.184;8.578;2023-04-15T16:26:51;13.30;99.90
23556;DHT22;11956;53.184;8.578;2023-04-15T16:29:52;13.30;99.90
23556;DHT22;11956;53.184;8.578;2023-04-15T16:32:53;13.40;99.90
23556;DHT22;11956;53.184;8.578;2023-04-15T16:35:54;13.40;99.90
23556;DHT22;11956;53.184;8.578;2023-04-15T16:38:55;13.40;99.90
23556;DHT22;11956;53.184;8.578;2023-04-15T16:41:56;13.30;99.90
23556;DHT22;11956;53.184;8.578;2023-04-15T16:44:57;13.20;99.90
23556;DHT22;11956;53.184;8.578;2023-04-15T16:47:58;13.10;99.90
23556;DHT22;11956;53.184;8.578;2023-04-15T16:50:59;13.00;99.90
23556;DHT22;11956;53.184;8.578;2023-04-15T16:54:00;12.90;99.90
23556;DHT22;11956;53.184;8.578;2023-04-15T16:57:00;12.90;99.90
23556;DHT22;11956;53.184;8.578;2023-04-15T17:00:02;12.90;99.90
23556;DHT22;11956;53.184;8.578;2023-04-15T17:03:04;13.00;99.90
23556;DHT22;11956;53.184;8.578;2023-04-15T17:06:05;13.00;99.90
23556;DHT22;11956;53.184;8.578;2023-04-15T17:09:06;13.00;99.90
23556;DHT22;11956;53.184;8.578;2023-04-15T17:12:07;13.00;99.90
23556;DHT22;11956;53.184;8.578;2023-04-15T17:15:08;13.00;99.90
23556;DHT22;11956;53.184;8.578;2023-04-15T17:18:09;12.90;99.90
23556;DHT22;11956;53.184;8.578;2023-04-15T17:21:11;12.90;99.90
23556;DHT22;11956;53.184;8.578;2023-04-15T17:24:12;12.90;99.90
23556;DHT22;11956;53.184;8.578;2023-04-15T17:27:13;13.00;99.90
23556;DHT22;11956;53.184;8.578;2023-04-15T17:30:14;12.90;99.90
23556;DHT22;11956;53.184;8.578;2023-04-15T17:33:15;12.90;99.90
23556;DHT22;11956;53.184;8.578;2023-04-15T17:36:16;13.00;99.90
23556;DHT22;11956;53.184;8.578;2023-04-15T17:39:17;12.90;99.90
23556;DHT22;11956;53.184;8.578;2023-04-15T17:42:18;12.80;99.90
23556;DHT22;11956;53.184;8.578;2023-04-15T17:45:19;12.90;99.90
23556;DHT22;11956;53.184;8.578;2023-04-15T17:48:19;12.90;99.90
23556;DHT22;11956;53.184;8.578;2023-04-15T17:51:20;12.80;99.90
23556;DHT22;11956;53.184;8.578;2023-04-15T17:54:21;12.90;99.90
23556;DHT22;11956;53.184;8.578;2023-04-15T17:57:22;12.80;99.90
23556;DHT22;11956;53.184;8.578;2023-04-15T18:00:24;12.90;99.90
23556;DHT22;11956;53.184;8.578;2023-04-15T18:03:25;12.90;99.90
23556;DHT22;11956;53.184;8.578;2023-04-15T18:06:26;12.90;99.90
23556;DHT22;11956;53.184;8.578;2023-04-15T18:09:27;12.90;99.90
23556;DHT22;11956;53.184;8.578;2023-04-15T18:12:28;12.90;99.90
23556;DHT22;11956;53.184;8.578;2023-04-15T18:15:29;12.80;99.90
23556;DHT22;11956;53.184;8.578;2023-04-15T18:18:30;12.80;99.90
23556;DHT22;11956;53.184;8.578;2023-04-15T18:21:31;12.70;99.90
23556;DHT22;11956;53.184;8.578;2023-04-15T18:24:32;12.70;99.90
23556;DHT22;11956;53.184;8.578;2023-04-15T18:27:35;12.60;99.90
23556;DHT22;11956;53.184;8.578;2023-04-15T18:30:38;12.60;99.90
23556;DHT22;11956;53.184;8.578;2023-04-15T18:33:39;12.60;99.90
23556;DHT22;11956;53.184;8.578;2023-04-15T18:36:40;12.60;99.90
23556;DHT22;11956;53.184;8.578;2023-04-15T18:39:42;12.60;99.90
23556;DHT22;11956;53.184;8.578;2023-04-15T18:42:43;12.50;99.90
23556;DHT22;11956;53.184;8.578;2023-04-15T18:45:44;12.50;99.90
23556;DHT22;11956;53.184;8.578;2023-04-15T18:48:45;12.50;99.90
23556;DHT22;11956;53.184;8.578;2023-04-15T18:51:46;12.50;99.90
23556;DHT22;11956;53.184;8.578;2023-04-15T18:54:47;12.50;99.90
23556;DHT22;11956;53.184;8.578;2023-04-15T18:57:48;12.40;99.90
23556;DHT22;11956;53.184;8.578;2023-04-15T19:00:49;12.40;99.90
23556;DHT22;11956;53.184;8.578;2023-04-15T19:03:50;12.40;99.90
23556;DHT22;11956;53.184;8.578;2023-04-15T19:06:51;12.40;99.90
23556;DHT22;11956;53.184;8.578;2023-04-15T19:09:52;12.40;99.90
23556;DHT22;11956;53.184;8.578;2023-04-15T19:12:53;12.30;99.90
23556;DHT22;11956;53.184;8.578;2023-04-15T19:15:54;12.30;99.90
23556;DHT22;11956;53.184;8.578;2023-04-15T19:18:55;12.30;99.90
23556;DHT22;11956;53.184;8.578;2023-04-15T19:21:56;12.20;99.90